sensor_id;sensor_type;location;lat;lon;timestamp;pressure;altitude;pressure_sealevel;temperature;humidity
15229;BME280;7717;47.792;12.076;2023-02-03T00:02:17;97268.94;;;5.68;100.00
15229;BME280;7717;47.792;12.076;2023-02-03T00:04:43;97251.91;;;5.64;100.00
15229;BME280;7717;47.792;12.076;2023-02-03T00:07:12;97252.91;;;5.69;100.00
15229;BME280;7717;47.792;12.076;2023-02-03T00:09:39;97249.00;;;5.81;100.00
15229;BME280;7717;47.792;12.076;2023-02-03T00:12:05;97241.91;;;5.70;100.00
15229;BME280;7717;47.792;12.076;2023-02-03T00:14:30;97249.00;;;5.81;100.00
15229;BME280;7717;47.792;12.076;2023-02-03T00:16:57;97250.34;;;5.69;100.00
15229;BME280;7717;47.792;12.076;2023-02-03T00:19:23;97242.66;;;5.95;100.00
15229;BME280;7717;47.792;12.076;2023-02-03T00:21:48;97251.56;;;5.81;100.00
15229;BME280;7717;47.792;12.076;2023-02-03T00:24:13;97260.25;;;5.89;100.00
15229;BME280;7717;47.792;12.076;2023-02-03T00:26:42;97257.25;;;5.73;100.00
15229;BME280;7717;47.792;12.076;2023-02-03T00:29:07;97259.28;;;5.84;100.00
15229;BME280;7717;47.792;12.076;2023-02-03T00:31:33;97260.06;;;5.83;100.00
15229;BME280;7717;47.792;12.076;2023-02-03T00:33:59;97262.84;;;5.90;100.00
15229;BME280;7717;47.792;12.076;2023-02-03T00:36:25;97272.34;;;5.69;100.00
15229;BME280;7717;47.792;12.076;2023-02-03T00:38:50;97261.19;;;5.91;100.00
15229;BME280;7717;47.792;12.076;2023-02-03T00:41:16;97259.13;;;5.79;100.00
15229;BME280;7717;47.792;12.076;2023-02-03T00:43:42;97250.97;;;5.62;100.00
15229;BME280;7717;47.792;12.076;2023-02-03T00:46:07;97264.91;;;5.75;100.00
15229;BME280;7717;47.792;12.076;2023-02-03T00:48:32;97259.31;;;5.58;100.00
15229;BME280;7717;47.792;12.076;2023-02-03T00:50:58;97262.19;;;5.69;100.00
15229;BME280;7717;47.792;12.076;2023-02-03T00:53:23;97260.50;;;5.69;100.00
15229;BME280;7717;47.792;12.076;2023-02-03T00:55:49;97265.00;;;5.78;100.00
15229;BME280;7717;47.792;12.076;2023-02-03T00:58:14;97270.34;;;5.58;100.00
15229;BME280;7717;47.792;12.076;2023-02-03T01:00:40;97267.22;;;5.41;100.00
15229;BME280;7717;47.792;12.076;2023-02-03T01:03:06;97271.88;;;5.53;100.00
15229;BME280;7717;47.792;12.076;2023-02-03T01:05:31;97254.94;;;5.28;100.00
15229;BME280;7717;47.792;12.076;2023-02-03T01:07:57;97267.94;;;5.37;100.00
15229;BME280;7717;47.792;12.076;2023-02-03T01:10:22;97263.69;;;5.36;100.00
15229;BME280;7717;47.792;12.076;2023-02-03T01:12:47;97272.00;;;5.32;100.00
15229;BME280;7717;47.792;12.076;2023-02-03T01:15:13;97261.56;;;5.49;100.00
15229;BME280;7717;47.792;12.076;2023-02-03T01:17:38;97270.97;;;5.53;100.00
15229;BME280;7717;47.792;12.076;2023-02-03T01:20:04;97273.91;;;5.65;100.00
15229;BME280;7717;47.792;12.076;2023-02-03T01:22:29;97269.97;;;5.48;100.00
15229;BME280;7717;47.792;12.076;2023-02-03T01:24:55;97265.16;;;5.55;100.00
15229;BME280;7717;47.792;12.076;2023-02-03T01:27:20;97259.53;;;5.64;100.00
15229;BME280;7717;47.792;12.076;2023-02-03T01:29:46;97253.63;;;5.92;100.00
15229;BME280;7717;47.792;12.076;2023-02-03T01:32:11;97256.03;;;6.15;100.00
15229;BME280;7717;47.792;12.076;2023-02-03T01:34:36;97248.06;;;6.04;100.00
15229;BME280;7717;47.792;12.076;2023-02-03T01:37:02;97253.94;;;5.76;100.00
15229;BME280;7717;47.792;12.076;2023-02-03T01:39:27;97252.94;;;5.71;100.00
15229;BME280;7717;47.792;12.076;2023-02-03T01:41:54;97244.22;;;5.63;100.00
15229;BME280;7717;47.792;12.076;2023-02-03T01:44:44;97243.03;;;5.53;100.00
15229;BME280;7717;47.792;12.076;2023-02-03T01:47:32;97256.84;;;5.59;100.00
15229;BME280;7717;47.792;12.076;2023-02-03T01:50:12;97235.88;;;5.94;100.00
15229;BME280;7717;47.792;12.076;2023-02-03T01:52:41;97238.22;;;5.88;100.00
15229;BME280;7717;47.792;12.076;2023-02-03T01:55:12;97220.03;;;6.01;100.00
15229;BME280;7717;47.792;12.076;2023-02-03T01:58:15;97222.88;;;6.12;100.00
15229;BME280;7717;47.792;12.076;2023-02-03T02:00:44;97214.25;;;6.07;100.00
15229;BME280;7717;47.792;12.076;2023-02-03T02:03:10;97210.31;;;6.17;100.00
15229;BME280;7717;47.792;12.076;2023-02-03T02:05:46;97186.22;;;6.34;100.00
15229;BME280;7717;47.792;12.076;2023-02-03T02:08:14;97202.94;;;6.56;100.00
15229;BME280;7717;47.792;12.076;2023-02-03T02:10:40;97205.78;;;6.67;100.00
15229;BME280;7717;47.792;12.076;2023-02-03T02:13:06;97204.16;;;6.69;100.00
15229;BME280;7717;47.792;12.076;2023-02-03T02:15:42;97201.25;;;6.89;100.00
15229;BME280;7717;47.792;12.076;2023-02-03T02:18:27;97200.38;;;6.87;100.00
15229;BME280;7717;47.792;12.076;2023-02-03T02:21:01;97190.28;;;6.90;100.00
15229;BME280;7717;47.792;12.076;2023-02-03T02:28:55;97176.47;;;7.15;100.00
15229;BME280;7717;47.792;12.076;2023-02-03T02:34:12;97179.72;;;7.09;100.00
15229;BME280;7717;47.792;12.076;2023-02-03T02:36:58;97185.47;;;7.00;100.00
15229;BME280;7717;47.792;12.076;2023-02-03T02:42:34;97176.28;;;7.07;100.00
15229;BME280;7717;47.792;12.076;2023-02-03T02:45:27;97183.00;;;7.03;100.00
15229;BME280;7717;47.792;12.076;2023-02-03T02:47:58;97189.88;;;7.08;100.00
15229;BME280;7717;47.792;12.076;2023-02-03T02:50:29;97192.56;;;7.14;100.00
15229;BME280;7717;47.792;12.076;2023-02-03T02:52:57;97181.69;;;7.19;100.00
15229;BME280;7717;47.792;12.076;2023-02-03T02:55:26;97205.78;;;6.99;100.00
15229;BME280;7717;47.792;12.076;2023-02-03T02:57:55;97190.50;;;6.99;100.00
15229;BME280;7717;47.792;12.076;2023-02-03T03:00:22;97188.00;;;7.00;100.00
15229;BME280;7717;47.792;12.076;2023-02-03T03:02:50;97197.44;;;7.05;100.00
15229;BME280;7717;47.792;12.076;2023-02-03T03:05:16;97191.56;;;7.07;100.00
15229;BME280;7717;47.792;12.076;2023-02-03T03:07:50;97189.16;;;7.13;100.00
15229;BME280;7717;47.792;12.076;2023-02-03T03:10:21;97201.06;;;7.13;100.00
15229;BME280;7717;47.792;12.076;2023-02-03T03:12:52;97202.91;;;6.87;100.00
15229;BME280;7717;47.792;12.076;2023-02-03T03:15:25;97215.13;;;7.00;100.00
15229;BME280;7717;47.792;12.076;2023-02-03T03:18:17;97203.06;;;6.93;100.00
15229;BME280;7717;47.792;12.076;2023-02-03T03:20:46;97197.81;;;6.87;100.00
15229;BME280;7717;47.792;12.076;2023-02-03T03:23:27;97211.75;;;6.68;100.00
15229;BME280;7717;47.792;12.076;2023-02-03T03:26:10;97202.28;;;6.63;100.00
15229;BME280;7717;47.792;12.076;2023-02-03T03:28:48;97214.22;;;6.64;100.00
15229;BME280;7717;47.792;12.076;2023-02-03T03:31:18;97214.72;;;6.53;100.00
15229;BME280;7717;47.792;12.076;2023-02-03T03:33:44;97222.16;;;6.46;100.00
15229;BME280;7717;47.792;12.076;2023-02-03T03:36:39;97205.59;;;6.29;100.00
15229;BME280;7717;47.792;12.076;2023-02-03T03:41:58;97200.44;;;6.58;100.00
15229;BME280;7717;47.792;12.076;2023-02-03T03:44:29;97185.44;;;6.67;100.00
15229;BME280;7717;47.792;12.076;2023-02-03T03:48:03;97232.69;;;6.59;100.00
15229;BME280;7717;47.792;12.076;2023-02-03T03:50:11;97210.78;;;6.64;100.00
15229;BME280;7717;47.792;12.076;2023-02-03T03:52:40;97211.63;;;6.63;100.00
15229;BME280;7717;47.792;12.076;2023-02-03T03:55:09;97209.72;;;6.25;100.00
15229;BME280;7717;47.792;12.076;2023-02-03T03:58:13;97192.75;;;6.56;100.00
15229;BME280;7717;47.792;12.076;2023-02-03T04:00:42;97198.16;;;6.37;100.00
15229;BME280;7717;47.792;12.076;2023-02-03T04:03:15;97203.00;;;6.27;100.00
15229;BME280;7717;47.792;12.076;2023-02-03T04:05:41;97193.94;;;6.37;100.00
15229;BME280;7717;47.792;12.076;2023-02-03T04:08:09;97172.19;;;6.47;100.00
15229;BME280;7717;47.792;12.076;2023-02-03T04:10:37;97197.22;;;6.33;100.00
15229;BME280;7717;47.792;12.076;2023-02-03T04:13:03;97206.88;;;6.45;100.00
15229;BME280;7717;47.792;12.076;2023-02-03T04:15:30;97215.16;;;6.38;100.00
15229;BME280;7717;47.792;12.076;2023-02-03T04:17:55;97203.66;;;6.51;100.00
15229;BME280;7717;47.792;12.076;2023-02-03T04:20:22;97196.97;;;6.24;100.00
15229;BME280;7717;47.792;12.076;2023-02-03T04:22:47;97205.81;;;6.08;100.00
15229;BME280;7717;47.792;12.076;2023-02-03T04:25:13;97193.53;;;5.94;100.00
15229;BME280;7717;47.792;12.076;2023-02-03T04:27:38;97194.75;;;5.79;100.00
15229;BME280;7717;47.792;12.076;2023-02-03T04:30:04;97203.91;;;6.01;100.00
15229;BME280;7717;47.792;12.076;2023-02-03T04:32:30;97208.06;;;5.97;100.00
15229;BME280;7717;47.792;12.076;2023-02-03T04:34:56;97207.41;;;6.04;100.00
15229;BME280;7717;47.792;12.076;2023-02-03T04:37:22;97193.69;;;6.28;100.00
15229;BME280;7717;47.792;12.076;2023-02-03T04:39:48;97195.38;;;6.27;100.00
15229;BME280;7717;47.792;12.076;2023-02-03T04:42:15;97207.31;;;6.30;100.00
15229;BME280;7717;47.792;12.076;2023-02-03T04:44:40;97209.25;;;6.39;100.00
15229;BME280;7717;47.792;12.076;2023-02-03T04:47:06;97212.25;;;6.25;100.00
15229;BME280;7717;47.792;12.076;2023-02-03T04:49:31;97216.16;;;6.43;100.00
15229;BME280;7717;47.792;12.076;2023-02-03T04:51:56;97220.03;;;6.30;100.00
15229;BME280;7717;47.792;12.076;2023-02-03T04:54:22;97215.97;;;6.37;100.00
15229;BME280;7717;47.792;12.076;2023-02-03T04:56:47;97189.69;;;6.36;100.00
15229;BME280;7717;47.792;12.076;2023-02-03T04:59:13;97184.88;;;6.45;100.00
15229;BME280;7717;47.792;12.076;2023-02-03T05:01:38;97181.47;;;6.46;100.00
15229;BME280;7717;47.792;12.076;2023-02-03T05:04:03;97186.47;;;6.43;100.00
15229;BME280;7717;47.792;12.076;2023-02-03T05:06:29;97204.16;;;6.39;100.00
15229;BME280;7717;47.792;12.076;2023-02-03T05:08:56;97211.91;;;6.43;100.00
15229;BME280;7717;47.792;12.076;2023-02-03T05:11:21;97223.16;;;6.52;100.00
15229;BME280;7717;47.792;12.076;2023-02-03T05:13:47;97230.88;;;6.55;100.00
15229;BME280;7717;47.792;12.076;2023-02-03T05:16:13;97235.28;;;6.60;100.00
15229;BME280;7717;47.792;12.076;2023-02-03T05:18:38;97222.81;;;6.70;100.00
15229;BME280;7717;47.792;12.076;2023-02-03T05:21:04;97223.44;;;6.93;100.00
15229;BME280;7717;47.792;12.076;2023-02-03T05:23:30;97241.00;;;6.83;100.00
15229;BME280;7717;47.792;12.076;2023-02-03T05:25:59;97243.94;;;6.67;100.00
15229;BME280;7717;47.792;12.076;2023-02-03T05:28:24;97258.75;;;6.52;100.00
15229;BME280;7717;47.792;12.076;2023-02-03T05:30:50;97250.63;;;6.63;100.00
15229;BME280;7717;47.792;12.076;2023-02-03T05:33:16;97249.69;;;6.60;100.00
15229;BME280;7717;47.792;12.076;2023-02-03T05:35:41;97246.72;;;6.44;100.00
15229;BME280;7717;47.792;12.076;2023-02-03T05:38:07;97224.22;;;6.58;100.00
15229;BME280;7717;47.792;12.076;2023-02-03T05:40:32;97232.78;;;6.62;100.00
15229;BME280;7717;47.792;12.076;2023-02-03T05:43:16;97202.66;;;6.45;100.00
15229;BME280;7717;47.792;12.076;2023-02-03T05:45:41;97215.94;;;6.67;100.00
15229;BME280;7717;47.792;12.076;2023-02-03T05:48:07;97205.81;;;6.69;100.00
15229;BME280;7717;47.792;12.076;2023-02-03T05:50:33;97192.56;;;6.80;100.00
15229;BME280;7717;47.792;12.076;2023-02-03T05:53:00;97203.59;;;6.81;99.94
15229;BME280;7717;47.792;12.076;2023-02-03T05:55:26;97198.31;;;6.73;100.00
15229;BME280;7717;47.792;12.076;2023-02-03T05:57:52;97199.06;;;6.69;100.00
15229;BME280;7717;47.792;12.076;2023-02-03T06:00:18;97197.00;;;6.56;100.00
15229;BME280;7717;47.792;12.076;2023-02-03T06:02:50;97211.06;;;6.43;100.00
15229;BME280;7717;47.792;12.076;2023-02-03T06:05:16;97189.88;;;6.42;100.00
15229;BME280;7717;47.792;12.076;2023-02-03T06:07:41;97220.53;;;6.48;100.00
15229;BME280;7717;47.792;12.076;2023-02-03T06:10:07;97195.94;;;6.47;100.00
15229;BME280;7717;47.792;12.076;2023-02-03T06:12:32;97210.44;;;6.52;100.00
15229;BME280;7717;47.792;12.076;2023-02-03T06:15:01;97219.59;;;6.45;100.00
15229;BME280;7717;47.792;12.076;2023-02-03T06:17:26;97202.94;;;6.26;100.00
15229;BME280;7717;47.792;12.076;2023-02-03T06:19:51;97211.25;;;6.20;100.00
15229;BME280;7717;47.792;12.076;2023-02-03T06:22:17;97228.06;;;6.15;100.00
15229;BME280;7717;47.792;12.076;2023-02-03T06:24:42;97237.41;;;5.89;100.00
15229;BME280;7717;47.792;12.076;2023-02-03T06:27:10;97232.06;;;6.07;100.00
15229;BME280;7717;47.792;12.076;2023-02-03T06:29:36;97229.91;;;5.93;100.00
15229;BME280;7717;47.792;12.076;2023-02-03T06:32:02;97226.19;;;6.09;100.00
15229;BME280;7717;47.792;12.076;2023-02-03T06:34:27;97214.78;;;5.97;100.00
15229;BME280;7717;47.792;12.076;2023-02-03T06:36:52;97218.50;;;6.08;100.00
15229;BME280;7717;47.792;12.076;2023-02-03T06:39:17;97247.31;;;5.81;100.00
15229;BME280;7717;47.792;12.076;2023-02-03T06:41:43;97248.84;;;6.02;100.00
15229;BME280;7717;47.792;12.076;2023-02-03T06:44:08;97242.66;;;5.95;100.00
15229;BME280;7717;47.792;12.076;2023-02-03T06:46:33;97242.19;;;5.80;100.00
15229;BME280;7717;47.792;12.076;2023-02-03T06:48:59;97242.31;;;6.10;100.00
15229;BME280;7717;47.792;12.076;2023-02-03T06:51:24;97245.53;;;6.33;100.00
15229;BME280;7717;47.792;12.076;2023-02-03T06:53:50;97235.25;;;6.28;100.00
15229;BME280;7717;47.792;12.076;2023-02-03T06:56:15;97230.66;;;6.45;100.00
15229;BME280;7717;47.792;12.076;2023-02-03T06:58:41;97220.19;;;6.36;100.00
15229;BME280;7717;47.792;12.076;2023-02-03T07:01:06;97230.88;;;6.55;100.00
15229;BME280;7717;47.792;12.076;2023-02-03T07:03:33;97227.25;;;6.77;100.00
15229;BME280;7717;47.792;12.076;2023-02-03T07:05:58;97244.72;;;6.96;100.00
15229;BME280;7717;47.792;12.076;2023-02-03T07:08:24;97227.66;;;6.60;100.00
15229;BME280;7717;47.792;12.076;2023-02-03T07:10:53;97232.59;;;6.56;100.00
15229;BME280;7717;47.792;12.076;2023-02-03T07:13:18;97227.19;;;6.74;100.00
15229;BME280;7717;47.792;12.076;2023-02-03T07:15:44;97219.91;;;6.88;99.88
15229;BME280;7717;47.792;12.076;2023-02-03T07:18:09;97231.69;;;6.84;99.58
15229;BME280;7717;47.792;12.076;2023-02-03T07:20:34;97233.97;;;6.75;99.63
15229;BME280;7717;47.792;12.076;2023-02-03T07:23:00;97240.28;;;6.88;99.23
15229;BME280;7717;47.792;12.076;2023-02-03T07:25:25;97228.88;;;6.75;99.01
15229;BME280;7717;47.792;12.076;2023-02-03T07:27:51;97230.94;;;6.88;98.81
15229;BME280;7717;47.792;12.076;2023-02-03T07:30:16;97235.88;;;6.82;98.79
15229;BME280;7717;47.792;12.076;2023-02-03T07:32:49;97240.38;;;6.92;98.71
15229;BME280;7717;47.792;12.076;2023-02-03T07:35:16;97220.69;;;6.85;98.50
15229;BME280;7717;47.792;12.076;2023-02-03T07:37:41;97236.09;;;6.90;98.27
15229;BME280;7717;47.792;12.076;2023-02-03T07:40:09;97243.22;;;7.03;98.36
15229;BME280;7717;47.792;12.076;2023-02-03T07:42:34;97251.72;;;7.03;98.27
15229;BME280;7717;47.792;12.076;2023-02-03T07:44:59;97242.75;;;7.18;97.95
15229;BME280;7717;47.792;12.076;2023-02-03T07:47:25;97240.44;;;7.27;98.67
15229;BME280;7717;47.792;12.076;2023-02-03T07:49:50;97232.50;;;7.15;97.83
15229;BME280;7717;47.792;12.076;2023-02-03T07:52:15;97211.06;;;7.07;96.68
15229;BME280;7717;47.792;12.076;2023-02-03T07:54:41;97220.69;;;7.18;96.66
15229;BME280;7717;47.792;12.076;2023-02-03T07:57:06;97210.28;;;7.43;97.91
15229;BME280;7717;47.792;12.076;2023-02-03T07:59:31;97211.50;;;7.24;96.16
15229;BME280;7717;47.792;12.076;2023-02-03T08:01:57;97192.28;;;7.36;96.13
15229;BME280;7717;47.792;12.076;2023-02-03T08:04:22;97181.69;;;7.19;95.93
15229;BME280;7717;47.792;12.076;2023-02-03T08:06:48;97171.72;;;7.29;95.21
15229;BME280;7717;47.792;12.076;2023-02-03T08:09:14;97168.44;;;7.34;94.76
15229;BME280;7717;47.792;12.076;2023-02-03T08:11:39;97188.16;;;7.42;96.38
15229;BME280;7717;47.792;12.076;2023-02-03T08:14:05;97182.84;;;7.32;95.21
15229;BME280;7717;47.792;12.076;2023-02-03T08:16:31;97167.75;;;7.40;94.77
15229;BME280;7717;47.792;12.076;2023-02-03T08:18:56;97177.94;;;7.40;95.57
15229;BME280;7717;47.792;12.076;2023-02-03T08:21:22;97187.16;;;7.35;95.64
15229;BME280;7717;47.792;12.076;2023-02-03T08:23:47;97175.28;;;7.35;95.63
15229;BME280;7717;47.792;12.076;2023-02-03T08:26:13;97157.34;;;7.31;94.83
15229;BME280;7717;47.792;12.076;2023-02-03T08:28:38;97137.75;;;7.27;94.21
15229;BME280;7717;47.792;12.076;2023-02-03T08:31:11;97139.13;;;7.50;94.06
15229;BME280;7717;47.792;12.076;2023-02-03T08:33:37;97135.06;;;7.59;94.28
15229;BME280;7717;47.792;12.076;2023-02-03T08:36:03;97121.03;;;7.78;92.74
15229;BME280;7717;47.792;12.076;2023-02-03T08:38:30;97119.44;;;7.83;91.65
15229;BME280;7717;47.792;12.076;2023-02-03T08:40:55;97140.19;;;7.60;91.77
15229;BME280;7717;47.792;12.076;2023-02-03T08:43:20;97137.19;;;7.80;91.68
15229;BME280;7717;47.792;12.076;2023-02-03T08:45:46;97127.16;;;7.86;90.90
15229;BME280;7717;47.792;12.076;2023-02-03T08:48:11;97144.94;;;7.84;91.41
15229;BME280;7717;47.792;12.076;2023-02-03T08:50:39;97147.44;;;7.81;90.17
15229;BME280;7717;47.792;12.076;2023-02-03T08:53:04;97166.53;;;7.99;91.11
15229;BME280;7717;47.792;12.076;2023-02-03T08:55:30;97183.16;;;7.83;90.71
15229;BME280;7717;47.792;12.076;2023-02-03T08:57:55;97188.66;;;7.63;90.32
15229;BME280;7717;47.792;12.076;2023-02-03T09:00:21;97176.22;;;7.75;89.48
15229;BME280;7717;47.792;12.076;2023-02-03T09:02:46;97148.59;;;7.94;87.85
15229;BME280;7717;47.792;12.076;2023-02-03T09:05:12;97107.75;;;7.92;87.60
15229;BME280;7717;47.792;12.076;2023-02-03T09:07:38;97161.00;;;8.20;89.28
15229;BME280;7717;47.792;12.076;2023-02-03T09:10:03;97148.34;;;8.24;89.44
15229;BME280;7717;47.792;12.076;2023-02-03T09:12:29;97106.47;;;8.13;86.54
15229;BME280;7717;47.792;12.076;2023-02-03T09:14:54;97153.09;;;8.07;87.71
15229;BME280;7717;47.792;12.076;2023-02-03T09:17:19;97145.56;;;8.14;88.27
15229;BME280;7717;47.792;12.076;2023-02-03T09:19:48;97177.72;;;8.46;88.65
15229;BME280;7717;47.792;12.076;2023-02-03T09:22:13;97153.16;;;8.50;87.67
15229;BME280;7717;47.792;12.076;2023-02-03T09:24:39;97142.44;;;8.27;86.55
15229;BME280;7717;47.792;12.076;2023-02-03T09:27:04;97129.81;;;8.33;86.18
15229;BME280;7717;47.792;12.076;2023-02-03T09:29:29;97135.28;;;8.52;87.05
15229;BME280;7717;47.792;12.076;2023-02-03T09:31:55;97123.84;;;8.33;85.65
15229;BME280;7717;47.792;12.076;2023-02-03T09:34:20;97118.03;;;8.40;85.41
15229;BME280;7717;47.792;12.076;2023-02-03T09:36:46;97136.97;;;8.51;86.60
15229;BME280;7717;47.792;12.076;2023-02-03T09:39:12;97120.00;;;8.53;85.69
15229;BME280;7717;47.792;12.076;2023-02-03T09:47:39;97127.66;;;8.53;83.73
15229;BME280;7717;47.792;12.076;2023-02-03T09:50:12;97127.38;;;8.85;84.01
15229;BME280;7717;47.792;12.076;2023-02-03T09:52:40;97125.31;;;8.65;83.73
15229;BME280;7717;47.792;12.076;2023-02-03T09:57:38;97116.13;;;8.72;83.24
15229;BME280;7717;47.792;12.076;2023-02-03T10:00:24;97110.28;;;8.81;83.63
15229;BME280;7717;47.792;12.076;2023-02-03T10:02:54;97114.25;;;9.15;83.95
15229;BME280;7717;47.792;12.076;2023-02-03T10:05:41;97147.06;;;8.92;85.18
15229;BME280;7717;47.792;12.076;2023-02-03T10:08:43;97128.25;;;8.86;83.57
15229;BME280;7717;47.792;12.076;2023-02-03T10:16:56;97050.16;;;8.98;81.83
15229;BME280;7717;47.792;12.076;2023-02-03T10:19:31;97063.84;;;9.02;81.03
15229;BME280;7717;47.792;12.076;2023-02-03T10:22:02;97069.00;;;9.05;81.30
15229;BME280;7717;47.792;12.076;2023-02-03T10:24:41;97081.88;;;9.13;81.72
15229;BME280;7717;47.792;12.076;2023-02-03T10:27:16;97087.63;;;8.99;82.32
15229;BME280;7717;47.792;12.076;2023-02-03T10:29:43;97074.09;;;9.05;81.40
15229;BME280;7717;47.792;12.076;2023-02-03T10:32:10;97090.22;;;9.03;81.52
15229;BME280;7717;47.792;12.076;2023-02-03T10:34:36;97095.34;;;9.03;81.57
15229;BME280;7717;47.792;12.076;2023-02-03T10:39:42;97078.75;;;9.32;81.11
15229;BME280;7717;47.792;12.076;2023-02-03T10:42:09;97073.44;;;9.18;81.22
15229;BME280;7717;47.792;12.076;2023-02-03T10:44:38;97074.31;;;9.19;80.94
15229;BME280;7717;47.792;12.076;2023-02-03T10:47:46;97072.97;;;8.86;81.11
15229;BME280;7717;47.792;12.076;2023-02-03T10:50:20;97069.44;;;8.81;81.87
15229;BME280;7717;47.792;12.076;2023-02-03T10:52:46;97110.41;;;8.87;82.89
15229;BME280;7717;47.792;12.076;2023-02-03T10:57:50;97077.22;;;8.89;80.71
15229;BME280;7717;47.792;12.076;2023-02-03T11:02:42;97069.19;;;9.17;81.39
15229;BME280;7717;47.792;12.076;2023-02-03T11:07:33;97094.47;;;9.02;82.82
15229;BME280;7717;47.792;12.076;2023-02-03T11:09:59;97052.03;;;9.09;80.65
15229;BME280;7717;47.792;12.076;2023-02-03T11:12:24;97056.88;;;8.93;80.93
15229;BME280;7717;47.792;12.076;2023-02-03T11:14:52;97072.28;;;8.98;81.19
15229;BME280;7717;47.792;12.076;2023-02-03T11:17:23;97085.44;;;8.69;80.61
15229;BME280;7717;47.792;12.076;2023-02-03T11:19:52;97061.34;;;9.05;80.27
15229;BME280;7717;47.792;12.076;2023-02-03T11:22:34;97065.22;;;8.81;80.84
15229;BME280;7717;47.792;12.076;2023-02-03T11:25:03;97108.03;;;8.98;82.41
15229;BME280;7717;47.792;12.076;2023-02-03T11:27:31;97089.69;;;9.22;81.76
15229;BME280;7717;47.792;12.076;2023-02-03T11:30:14;97068.72;;;8.88;80.70
15229;BME280;7717;47.792;12.076;2023-02-03T11:32:42;97069.66;;;8.93;80.60
15229;BME280;7717;47.792;12.076;2023-02-03T11:35:22;97076.72;;;9.10;81.44
15229;BME280;7717;47.792;12.076;2023-02-03T11:37:56;97096.16;;;9.01;82.77
15229;BME280;7717;47.792;12.076;2023-02-03T11:40:29;97072.00;;;8.81;81.66
15229;BME280;7717;47.792;12.076;2023-02-03T11:45:33;97080.56;;;8.83;82.00
15229;BME280;7717;47.792;12.076;2023-02-03T11:48:24;97074.06;;;8.53;81.73
15229;BME280;7717;47.792;12.076;2023-02-03T11:59:34;97074.59;;;8.35;83.16
15229;BME280;7717;47.792;12.076;2023-02-03T12:02:18;97098.69;;;8.50;84.16
15229;BME280;7717;47.792;12.076;2023-02-03T12:08:07;97044.09;;;8.41;82.39
15229;BME280;7717;47.792;12.076;2023-02-03T12:10:59;97033.16;;;8.47;82.17
15229;BME280;7717;47.792;12.076;2023-02-03T12:19:01;97001.22;;;8.71;82.29
15229;BME280;7717;47.792;12.076;2023-02-03T12:21:45;97008.31;;;8.90;82.37
15229;BME280;7717;47.792;12.076;2023-02-03T12:27:29;97007.53;;;8.94;81.54
15229;BME280;7717;47.792;12.076;2023-02-03T12:30:08;97018.81;;;8.54;81.56
15229;BME280;7717;47.792;12.076;2023-02-03T12:32:41;97010.34;;;8.56;82.21
15229;BME280;7717;47.792;12.076;2023-02-03T12:37:49;97033.16;;;8.45;82.80
15229;BME280;7717;47.792;12.076;2023-02-03T12:40:48;97005.91;;;8.44;82.01
15229;BME280;7717;47.792;12.076;2023-02-03T12:46:17;97009.31;;;8.45;82.72
15229;BME280;7717;47.792;12.076;2023-02-03T12:49:01;97006.56;;;8.36;82.78
15229;BME280;7717;47.792;12.076;2023-02-03T12:51:41;96991.06;;;8.25;82.07
15229;BME280;7717;47.792;12.076;2023-02-03T12:56:52;96993.63;;;8.25;83.58
15229;BME280;7717;47.792;12.076;2023-02-03T12:59:22;96973.16;;;8.22;83.08
15229;BME280;7717;47.792;12.076;2023-02-03T13:02:14;96973.84;;;8.11;83.25
15229;BME280;7717;47.792;12.076;2023-02-03T13:04:48;96977.41;;;8.21;83.69
15229;BME280;7717;47.792;12.076;2023-02-03T13:07:25;96974.06;;;8.24;83.94
15229;BME280;7717;47.792;12.076;2023-02-03T13:10:02;96964.44;;;8.09;84.07
15229;BME280;7717;47.792;12.076;2023-02-03T13:12:32;96930.16;;;7.91;83.70
15229;BME280;7717;47.792;12.076;2023-02-03T13:18:33;96948.97;;;8.00;84.03
15229;BME280;7717;47.792;12.076;2023-02-03T13:20:59;96948.22;;;8.04;84.64
15229;BME280;7717;47.792;12.076;2023-02-03T13:23:25;96935.25;;;7.91;83.70
15229;BME280;7717;47.792;12.076;2023-02-03T13:34:44;96880.19;;;8.01;83.22
15229;BME280;7717;47.792;12.076;2023-02-03T13:37:38;96921.19;;;8.14;84.33
15229;BME280;7717;47.792;12.076;2023-02-03T13:40:21;96907.38;;;8.01;84.16
15229;BME280;7717;47.792;12.076;2023-02-03T13:42:58;96898.09;;;8.06;83.84
15229;BME280;7717;47.792;12.076;2023-02-03T13:50:32;96883.81;;;8.16;83.71
15229;BME280;7717;47.792;12.076;2023-02-03T13:53:07;96872.25;;;8.36;83.64
15229;BME280;7717;47.792;12.076;2023-02-03T13:55:40;96882.72;;;8.01;84.30
15229;BME280;7717;47.792;12.076;2023-02-03T13:58:19;96865.00;;;8.09;83.58
15229;BME280;7717;47.792;12.076;2023-02-03T14:05:53;96858.31;;;8.17;85.28
15229;BME280;7717;47.792;12.076;2023-02-03T14:16:38;96850.38;;;7.96;84.38
15229;BME280;7717;47.792;12.076;2023-02-03T14:19:05;96833.38;;;7.96;83.82
15229;BME280;7717;47.792;12.076;2023-02-03T14:21:39;96848.88;;;8.10;84.88
15229;BME280;7717;47.792;12.076;2023-02-03T14:24:09;96863.97;;;7.96;85.88
15229;BME280;7717;47.792;12.076;2023-02-03T14:26:39;96868.50;;;8.16;86.03
15229;BME280;7717;47.792;12.076;2023-02-03T14:29:08;96851.38;;;8.07;85.83
15229;BME280;7717;47.792;12.076;2023-02-03T14:31:56;96824.53;;;8.29;84.07
15229;BME280;7717;47.792;12.076;2023-02-03T14:37:09;96766.56;;;8.19;83.46
15229;BME280;7717;47.792;12.076;2023-02-03T15:00:04;96752.34;;;8.35;81.97
15229;BME280;7717;47.792;12.076;2023-02-03T15:02:31;96738.69;;;8.33;81.40
15229;BME280;7717;47.792;12.076;2023-02-03T15:07:39;96756.53;;;8.31;82.93
15229;BME280;7717;47.792;12.076;2023-02-03T15:10:21;96721.53;;;8.19;82.41
15229;BME280;7717;47.792;12.076;2023-02-03T15:12:52;96752.41;;;8.39;83.21
15229;BME280;7717;47.792;12.076;2023-02-03T15:15:26;96748.94;;;8.36;83.19
15229;BME280;7717;47.792;12.076;2023-02-03T15:17:56;96738.66;;;8.31;83.02
15229;BME280;7717;47.792;12.076;2023-02-03T15:20:37;96744.69;;;8.33;83.22
15229;BME280;7717;47.792;12.076;2023-02-03T15:23:22;96732.78;;;8.35;83.03
15229;BME280;7717;47.792;12.076;2023-02-03T15:25:56;96719.50;;;7.97;82.75